createdAt,value
2019-04-28T00:01:54.586Z,4.35
2019-04-28T00:07:01.862Z,4.97
2019-04-28T00:12:11.284Z,3.83
2019-04-28T00:17:18.597Z,3.40
2019-04-28T00:22:35.482Z,3.90
2019-04-28T00:27:42.581Z,3.77
2019-04-28T00:32:49.585Z,3.77
2019-04-28T00:37:56.582Z,7.03
2019-04-28T00:43:03.660Z,4.05
2019-04-28T00:48:11.005Z,6.17
2019-04-28T00:53:18.577Z,4.92
2019-04-28T00:58:25.600Z,4.87
2019-04-28T01:03:32.602Z,7.10
2019-04-28T01:08:39.699Z,4.65
2019-04-28T01:13:46.597Z,5.22
2019-04-28T01:19:20.108Z,4.08
2019-04-28T01:24:27.262Z,4.65
2019-04-28T01:29:34.519Z,5.80
2019-04-28T01:34:41.631Z,6.57
2019-04-28T01:39:49.574Z,6.70
2019-04-28T01:44:56.564Z,8.05
2019-04-28T01:50:03.565Z,6.10
2019-04-28T01:55:10.589Z,8.53
2019-04-28T02:00:23.058Z,7.67
2019-04-28T02:05:27.264Z,7.20
2019-04-28T02:10:34.459Z,8.37
2019-04-28T02:15:41.605Z,8.83
2019-04-28T02:20:53.257Z,10.70
2019-04-28T02:26:00.620Z,8.50
2019-04-28T02:31:07.596Z,10.75
2019-04-28T02:36:14.614Z,11.22
2019-04-28T02:41:23.277Z,10.80
2019-04-28T02:46:30.885Z,8.53
2019-04-28T02:51:46.539Z,10.37
2019-04-28T02:56:53.600Z,8.33
2019-04-28T03:02:00.804Z,9.88
2019-04-28T03:07:08.237Z,13.62
2019-04-28T03:12:15.565Z,12.40
2019-04-28T03:17:22.604Z,15.50
2019-04-28T03:22:33.001Z,12.05
2019-04-28T03:28:01.246Z,15.58
2019-04-28T03:33:13.214Z,12.88
2019-04-28T03:38:21.230Z,20.85
2019-04-28T03:53:41.128Z,16.32
2019-04-28T04:02:36.745Z,15.48
2019-04-28T04:07:43.588Z,19.27
2019-04-28T04:12:55.258Z,17.25
2019-04-28T04:18:11.085Z,16.52
2019-04-28T04:28:24.437Z,16.05
2019-04-28T04:33:31.570Z,22.15
2019-04-28T04:38:43.028Z,17.42
2019-04-28T04:48:54.591Z,19.45
2019-04-28T04:54:01.586Z,18.95
2019-04-28T04:59:10.306Z,24.07
2019-04-28T05:04:23.545Z,20.50
2019-04-28T05:09:31.196Z,26.68
2019-04-28T05:14:39.514Z,20.40
2019-04-28T05:19:46.523Z,17.53
2019-04-28T05:25:10.091Z,23.37
2019-04-28T05:30:17.607Z,21.30
2019-04-28T05:35:25.238Z,24.92
2019-04-28T05:40:32.601Z,27.98
2019-04-28T05:45:39.823Z,31.95
2019-04-28T05:50:52.676Z,30.48
2019-04-28T05:56:24.245Z,28.40
2019-04-28T06:01:35.513Z,27.85
2019-04-28T06:06:44.272Z,31.47
2019-04-28T06:16:57.619Z,27.48
2019-04-28T06:22:04.618Z,31.90
2019-04-28T06:27:11.650Z,33.42
2019-04-28T06:32:18.642Z,22.50
2019-04-28T06:37:25.597Z,27.70
2019-04-28T06:42:32.603Z,30.40
2019-04-28T06:47:39.626Z,29.98
2019-04-28T06:52:46.587Z,28.40
2019-04-28T06:57:53.601Z,24.25
2019-04-28T07:03:00.719Z,25.10
2019-04-28T07:08:07.897Z,23.38
2019-04-28T07:13:14.794Z,25.82
2019-04-28T07:18:21.692Z,20.60
2019-04-28T07:23:28.765Z,21.62
2019-04-28T07:28:36.044Z,19.15
2019-04-28T07:33:43.286Z,18.37
2019-04-28T07:38:50.570Z,15.50
2019-04-28T07:43:57.575Z,19.93
2019-04-28T07:49:04.600Z,19.62
2019-04-28T07:54:12.484Z,14.75
2019-04-28T07:59:19.628Z,22.37
2019-04-28T08:04:26.587Z,19.73
2019-04-28T08:09:33.582Z,21.10
2019-04-28T08:14:40.555Z,15.82
2019-04-28T08:19:47.623Z,18.33
2019-04-28T08:24:54.609Z,14.13
2019-04-28T08:30:01.573Z,18.80
2019-04-28T08:35:09.748Z,11.48
2019-04-28T08:40:17.056Z,13.95
2019-04-28T08:45:24.698Z,13.05
2019-04-28T08:50:32.771Z,10.48
2019-04-28T08:55:40.269Z,13.13
2019-04-28T09:00:47.862Z,10.48
2019-04-28T09:05:55.286Z,8.38
2019-04-28T09:11:02.733Z,12.35
2019-04-28T09:16:10.256Z,6.72
2019-04-28T09:21:17.652Z,6.78
2019-04-28T09:26:26.647Z,7.80
2019-04-28T09:31:34.259Z,9.80
2019-04-28T09:36:43.609Z,9.40
2019-04-28T09:42:09.475Z,9.53
2019-04-28T09:47:17.254Z,6.28
2019-04-28T09:52:24.677Z,7.45
2019-04-28T09:57:33.285Z,15.53
2019-04-28T10:02:41.125Z,8.25
2019-04-28T10:07:48.924Z,7.60
2019-04-28T10:23:08.711Z,5.95
2019-04-28T10:33:24.267Z,5.33
2019-04-28T10:38:31.802Z,5.55
2019-04-28T10:43:39.702Z,3.42
2019-04-28T10:48:47.600Z,6.75
2019-04-28T10:53:54.875Z,5.00
2019-04-28T10:59:03.717Z,7.22
2019-04-28T11:04:29.665Z,9.70
2019-04-28T11:09:42.351Z,4.28
2019-04-28T11:14:49.579Z,6.22
2019-04-28T11:19:57.033Z,6.15
2019-04-28T11:25:04.496Z,5.50
2019-04-28T11:30:13.415Z,4.10
2019-04-28T11:35:28.288Z,4.53
2019-04-28T11:40:35.579Z,4.92
2019-04-28T11:45:43.598Z,5.72
2019-04-28T11:50:50.597Z,4.33
2019-04-28T11:55:57.596Z,4.00
2019-04-28T12:01:05.595Z,4.42
2019-04-28T12:06:12.606Z,4.42
2019-04-28T12:11:44.289Z,4.62
2019-04-28T12:22:28.598Z,6.12
2019-04-28T12:27:35.602Z,3.30
2019-04-28T12:32:42.578Z,3.72
2019-04-28T12:37:49.467Z,4.22
2019-04-28T12:42:56.471Z,5.03
2019-04-28T12:48:03.546Z,4.67
2019-04-28T12:53:10.567Z,16.00
2019-04-28T12:58:17.517Z,6.10
2019-04-28T13:03:49.259Z,3.67
2019-04-28T13:08:56.418Z,5.25
2019-04-28T13:14:03.587Z,4.03
2019-04-28T13:19:10.570Z,3.33
2019-04-28T13:24:17.572Z,4.30
2019-04-28T13:29:24.590Z,4.65
2019-04-28T13:34:33.261Z,12.25
2019-04-28T13:39:46.631Z,6.20
2019-04-28T13:45:01.253Z,4.77
2019-04-28T13:50:22.127Z,3.92
2019-04-28T13:55:54.537Z,3.47
2019-04-28T14:01:24.591Z,4.72
2019-04-28T14:06:32.520Z,3.12
2019-04-28T14:11:39.932Z,4.00
2019-04-28T14:16:47.046Z,4.62
2019-04-28T14:21:54.232Z,3.62
2019-04-28T14:27:01.430Z,3.70
2019-04-28T14:32:08.491Z,5.90
2019-04-28T14:37:18.519Z,4.10
2019-04-28T14:42:25.604Z,3.73
2019-04-28T14:47:32.483Z,8.98
2019-04-28T14:57:57.545Z,3.55
2019-04-28T15:03:09.240Z,4.22
2019-04-28T15:13:41.613Z,3.33
2019-04-28T15:19:00.334Z,6.05
2019-04-28T15:24:07.586Z,3.20
2019-04-28T15:30:41.693Z,2.50
2019-04-28T15:38:23.655Z,5.75
2019-04-28T15:48:36.570Z,3.60
2019-04-28T15:53:45.274Z,1.77
2019-04-28T16:03:58.442Z,3.33
2019-04-28T16:09:12.926Z,2.75
2019-04-28T16:14:19.690Z,2.10
2019-04-28T16:19:26.583Z,2.27
2019-04-28T16:24:33.483Z,2.35
2019-04-28T16:29:41.377Z,2.38
2019-04-28T16:34:50.668Z,8.27
2019-04-28T16:39:58.465Z,3.67
2019-04-28T16:45:07.857Z,2.57
2019-04-28T16:50:15.081Z,3.98
2019-04-28T16:55:27.263Z,2.40
2019-04-28T17:00:56.343Z,2.83
2019-04-28T17:06:04.454Z,1.50
2019-04-28T17:11:12.224Z,2.52
2019-04-28T17:16:19.492Z,1.72
2019-04-28T17:21:26.737Z,2.70
2019-04-28T17:26:33.637Z,1.82
2019-04-28T17:31:40.594Z,2.67
2019-04-28T17:36:47.504Z,4.55
2019-04-28T17:44:53.069Z,4.85
2019-04-28T17:50:00.591Z,6.47
2019-04-28T17:55:09.767Z,3.95
2019-04-28T18:00:39.352Z,6.08
2019-04-28T18:05:50.660Z,6.37
2019-04-28T18:10:57.646Z,3.20
2019-04-28T18:16:33.252Z,5.55
2019-04-28T18:26:47.633Z,7.28
2019-04-28T18:32:05.949Z,4.08
2019-04-28T18:37:44.262Z,3.15
2019-04-28T18:42:58.252Z,2.85
2019-04-28T18:48:05.693Z,6.42
2019-04-28T18:53:13.689Z,6.67
2019-04-28T19:03:26.507Z,5.28
2019-04-28T19:08:49.195Z,8.08
2019-04-28T19:13:59.856Z,6.10
2019-04-28T19:19:09.277Z,6.87
2019-04-28T19:29:42.569Z,3.25
2019-04-28T19:34:51.375Z,7.58
2019-04-28T19:39:58.500Z,2.37
2019-04-28T19:45:06.336Z,3.10
2019-04-28T19:50:13.599Z,2.40
2019-04-28T19:55:28.256Z,4.00
2019-04-28T20:00:42.856Z,4.90
2019-04-28T20:05:51.614Z,5.60
2019-04-28T20:16:06.059Z,3.33
2019-04-28T20:21:15.804Z,4.67
2019-04-28T20:26:24.868Z,2.92
2019-04-28T20:31:32.711Z,2.50
2019-04-28T20:36:56.285Z,3.33
2019-04-28T20:47:36.921Z,3.65
2019-04-28T20:57:52.780Z,8.93
2019-04-28T21:08:07.573Z,6.37
2019-04-28T21:18:20.609Z,5.20
2019-04-28T21:23:27.461Z,4.60
2019-04-28T21:33:40.449Z,4.90
2019-04-28T21:38:50.786Z,3.95
2019-04-28T21:44:09.241Z,4.62
2019-04-28T21:54:31.596Z,12.78
2019-04-28T21:59:38.597Z,7.03
2019-04-28T22:04:47.105Z,6.80
2019-04-28T22:09:54.581Z,5.40
2019-04-28T22:15:02.344Z,5.42
2019-04-28T22:20:09.869Z,6.92
2019-04-28T22:25:22.731Z,6.20
2019-04-28T22:30:29.616Z,7.22
2019-04-28T22:35:36.592Z,6.58
2019-04-28T22:40:44.583Z,9.43
2019-04-28T22:45:51.600Z,6.70
2019-04-28T22:50:58.458Z,8.80
2019-04-28T22:56:14.283Z,6.87
2019-04-28T23:01:31.268Z,7.53
2019-04-28T23:06:38.538Z,6.78
2019-04-28T23:16:51.457Z,6.97
2019-04-28T23:22:09.532Z,6.70
2019-04-28T23:27:16.439Z,8.43
2019-04-28T23:32:23.455Z,6.80
2019-04-28T23:42:41.263Z,7.95
2019-04-28T23:47:48.390Z,7.27
2019-04-28T23:58:10.864Z,7.60
